This is the latest recevied weather packets stored in our database for station/object DL8TF-13. If no packets are shown the sender has not sent any weather packets the latest 10 day(s).
| Time | Temp. | Humidity | Pressure | Rain* | Wind** | Luminosity | Snow |
|---|---|---|---|---|---|---|---|
| 1777551802 | 30° C | 7% | 993 hPa | - | - | - | - |
| 1777551202 | 31.67° C | 7% | 993 hPa | - | - | - | - |
| 1777548201 | 21.67° C | 14% | 994 hPa | - | - | - | - |
| 1777544601 | 15° C | 23% | 994 hPa | - | - | - | - |
| 1777544001 | 14.44° C | 22% | 994 hPa | - | - | - | - |
| 1777543401 | 13.89° C | 22% | 994 hPa | - | - | - | - |
| 1777542201 | 13.89° C | 23% | 995 hPa | - | - | - | - |
| 1777541601 | 13.33° C | 22% | 994 hPa | - | - | - | - |
| 1777541001 | 13.33° C | 23% | 994 hPa | - | - | - | - |
| 1777536800 | 11.67° C | 26% | 995 hPa | - | - | - | - |
| 1777534400 | 11.11° C | 27% | 995 hPa | - | - | - | - |
| 1777533800 | 10.56° C | 27% | 994 hPa | - | - | - | - |
| 1777532600 | 10° C | 28% | 994 hPa | - | - | - | - |
| 1777530799 | 9.44° C | 29% | 995 hPa | - | - | - | - |
| 1777530199 | 8.89° C | 30% | 995 hPa | - | - | - | - |
| 1777529599 | 8.89° C | 31% | 994 hPa | - | - | - | - |
| 1777528999 | 8.89° C | 31% | 994 hPa | - | - | - | - |
| 1777528399 | 8.89° C | 30% | 994 hPa | - | - | - | - |
| 1777527799 | 8.89° C | 30% | 994 hPa | - | - | - | - |
| 1777527199 | 8.33° C | 32% | 994 hPa | - | - | - | - |
| 1777526599 | 7.78° C | 32% | 994 hPa | - | - | - | - |
| 1777525999 | 7.78° C | 31% | 994 hPa | - | - | - | - |
| 1777525399 | 8.33° C | 32% | 994 hPa | - | - | - | - |
| 1777524799 | 8.33° C | 31% | 994 hPa | - | - | - | - |
| 1777524199 | 8.33° C | 32% | 994 hPa | - | - | - | - |
* Rain since midnight (hover to see other rain measurements)
** Current wind speed in m/s (hover to see current wind gust speed)